Steptoe Valley WMA, Nevada Weather observations

Data are for 10 minute period ending at time listed.
 Day   Time   Solar   Ave.   Ave.  Ave.  Vector  Max.   Baro.   Total    
  of    of     Rad.   Air    Rel.  Wind   Wind   Wind  Press.  Precip.   
Year   Day            Temp.  Hum.  Speed  Dir.   Gust                    
2015   (PST)  Kw/m2    F      %     mph   deg.    mph    mb.     in.     
-------------------------------------------------------------------------
  88   14:00   0.76   70.7    12    8.6   145    19.3   806.1    0.00 
  88   14:10   0.63   70.2    12   13.4   166    21.4   806.0    0.00 
  88   14:20   0.53   69.6    13   10.8   192    20.2   806.0    0.00 
  88   14:30   0.33   68.7    13    8.4   183    16.7   805.9    0.00 
  88   14:40   0.31   67.4    13    4.3   157    14.7   805.8    0.00 
  88   14:50   0.32   67.7    13   10.4   169    20.2   805.7    0.00 
  88   15:00   0.43   68.4    13    9.2   193    18.3   805.7    0.00 
  88   15:10   0.30   68.2    13    8.3   234    14.4   805.7    0.00 
  88   15:20   0.29   67.7    13    7.4   240    11.8   805.7    0.00 
  88   15:30   0.27   67.5    13    6.5   242    10.9   805.7    0.00 
  88   15:40   0.19   66.6    14    6.4   231     9.8   805.6    0.00 
  88   15:50   0.17   66.1    14    5.6   229     8.6   805.5    0.00 
  88   16:00   0.15   65.6    15    6.7   226    10.1   805.5    0.00 
  88   16:10   0.13   65.3    14    4.8   241     7.2   805.5    0.00 
  88   16:20   0.16   65.1    17    2.5   211     4.2   805.4    0.00 
  88   16:30   0.17   66.6    14    3.6   215     6.1   805.4    0.00 
  88   16:40   0.13   65.5    15    5.8   209     8.4   805.4    0.00 
  88   16:50   0.21   65.7    14    7.0   204    10.2   805.4    0.00 
  88   17:00   0.16   66.9    13    7.3   211    11.1   805.4    0.00 
  88   17:10   0.07   64.6    15    5.7   224     9.3   805.4    0.00 
  88   17:20   0.07   63.3    17    3.6   211     6.4   805.4    0.00 
  88   17:30   0.07   62.8    17    2.3   181     3.4   805.4    0.00 
  88   17:40   0.02   61.3    16    2.6   167     3.4   805.3    0.00 
  88   17:50   0.01   59.8    16    2.4   157     3.1   805.2    0.00 
  88   18:00   0.01   58.1    21    2.2   167     3.0   805.1    0.00 
  88   18:10   0.00   54.1    26    2.2   161     3.5   805.1    0.00 
  88   18:20   0.00   53.2    24    2.7   167     4.1   805.1    0.00 
  88   18:30   0.00   53.3    23    2.2   167     3.5   805.1    0.00 
  88   18:40   0.00   52.5    22    1.5   150     3.0   805.2    0.00 
  88   18:50   0.00   52.3    22    2.3   151     3.7   805.4    0.00 
  88   19:00   0.00   53.4    21    2.9   135     5.2   805.5    0.00 
  88   19:10   0.00   52.8    21    3.8   135     9.3   805.7    0.00 
  88   19:20   0.00   55.6    18    6.6   118    10.4   805.7    0.00 
  88   19:30   0.00   53.8    20    8.1   125    11.5   805.8    0.00 
  88   19:40   0.00   53.8    20    7.5   125    11.0   805.9    0.00 
  88   19:50   0.00   53.3    20    6.5   125     8.3   806.0    0.00 
  88   20:00   0.00   52.5    21    5.6   137     7.9   806.1    0.00 
  88   20:10   0.00   51.7    21    5.9   125     8.0   806.1    0.00 
  88   20:20   0.00   48.1    27    4.9   189     7.7   806.2    0.00 
  88   20:30   0.00   45.3    30    4.7   178     9.1   806.2    0.00 
  88   20:40   0.00   42.9    32    3.9   160     6.5   806.2    0.00 
  88   20:50   0.00   41.3    33    4.5   160     7.2   806.3    0.00 
  88   21:00   0.00   40.3    34    4.5   164     5.8   806.4    0.00 
  88   21:10   0.00   39.2    36    3.5   167     5.2   806.5    0.00 
  88   21:20   0.00   38.8    36    3.0   148     4.6   806.5    0.00 
  88   21:30   0.00   40.2    36    3.0   153     5.4   806.6    0.00 
  88   21:40   0.00   39.6    40    1.4   190     3.1   806.7    0.00 
  88   21:50   0.00   38.7    38    1.8   141     3.1   806.8    0.00 
  88   22:00   0.00   39.0    36    3.5   133     5.8   806.8    0.00 
  88   22:10   0.00   38.5    39    2.8   134     5.6   806.9    0.00 
  88   22:20   0.00   37.1    39    2.4   110     5.0   806.8    0.00 
  88   22:30   0.00   33.0    53    1.4   166     3.5   806.9    0.00 
  88   22:40   0.00   32.8    47    2.9   166     5.5   806.8    0.00 
  88   22:50   0.00   34.1    46    3.6   168     4.8   806.8    0.00 
  88   23:00   0.00   34.1    51    2.5   166     5.6   807.0    0.00 
  88   23:10   0.00   34.1    52    3.2   178     9.1   807.1    0.00 
  88   23:20   0.00   32.3    54    3.0   149     6.9   807.1    0.00 
  88   23:30   0.00   32.1    54    2.7   155     5.9   807.0    0.00 
  88   23:40   0.00   30.5    58    2.0   169     3.6   807.0    0.00 
  88   23:50   0.00   30.0    58    1.6   167     5.4   806.9    0.00 
  89    0:00   0.00   30.3    57    4.5   181     7.6   806.9    0.00 
  89    0:10   0.00   31.9    54    4.1   182     5.6   806.9    0.00 
  89    0:20   0.00   32.1    53    3.9   167     7.2   807.0    0.00 
  89    0:30   0.00   31.5    53    2.0   345     4.2   807.1    0.00 
  89    0:40   0.00   30.2    54    1.7    23     2.9   807.2    0.00 
  89    0:50   0.00   29.6    54    1.9   355     3.5   807.2    0.00 
  89    1:00   0.00   29.4    61    1.9   160     3.1   807.2    0.00 
  89    1:10   0.00   28.7    60    3.3   153     5.2   807.1    0.00 
  89    1:20   0.00   28.3    58    3.6   153     5.2   807.2    0.00 
  89    1:30   0.00   28.8    55    4.0   124     7.1   807.1    0.00 
  89    1:40   0.00   28.4    54    1.4   181     7.0   807.1    0.00 
  89    1:50   0.00   27.5    55    1.6   154     3.9   807.0    0.00 
  89    2:00   0.00   26.6    58    2.2   161     3.7   807.0    0.00 
  89    2:10   0.00   23.2    65    2.3   154     3.4   807.1    0.00 
  89    2:20   0.00   24.6    61    1.5   154     2.7   807.1    0.00 
  89    2:30   0.00   24.9    62    2.1   160     3.0   807.1    0.00 
  89    2:40   0.00   27.4    56    1.8   178     2.8   807.1    0.00 
  89    2:50   0.00   24.3    63    2.6   182     4.4   807.1    0.00 
  89    3:00   0.00   21.7    69    2.9   167     3.9   807.1    0.00 
  89    3:10   0.00   22.5    68    1.2   169     2.6   807.1    0.00 
  89    3:20   0.00   23.4    64    0.4   157     2.1   807.1    0.00 
  89    3:30   0.00   24.1    66    2.2   179     3.7   807.3    0.00 
  89    3:40   0.00   22.2    66    2.4   163     3.3   807.3    0.00 
  89    3:50   0.00   21.8    67    1.6   161     2.8   807.3    0.00 
  89    4:00   0.00   24.3    62    4.2   176     7.2   807.4    0.00 
  89    4:10   0.00   24.4    61    4.1   191     7.4   807.4    0.00 
  89    4:20   0.00   21.4    68    1.2   168     2.6   807.5    0.00 
  89    4:30   0.00   20.5    70    1.1   160     2.6   807.5    0.00 
  89    4:40   0.00   20.6    71    1.9   169     2.7   807.5    0.00 
  89    4:50   0.00   20.8    70    2.0   160     3.0   807.5    0.00 
  89    5:00   0.00   20.8    71    3.3   172     6.0   807.5    0.00 
  89    5:10   0.00   21.6    67    2.6   169     4.7   807.5    0.00 
  89    5:20   0.00   22.1    63    2.3   182     5.1   807.6    0.00 
  89    5:30   0.00   22.2    64    1.3   156     2.0   807.6    0.00 
  89    5:40   0.01   21.8    64    0.5   164     2.1   807.7    0.00 
  89    5:50   0.01   21.8    67    0.4   100     1.6   807.7    0.00 
  89    6:00   0.02   21.9    68    1.1   162     2.4   807.8    0.00 
  89    6:10   0.02   23.0    68    2.3   174     5.3   807.9    0.00 
  89    6:20   0.02   23.9    67    2.5   158     5.3   807.9    0.00 
  89    6:30   0.14   26.3    63    2.3   154     4.5   807.9    0.00 
  89    6:40   0.19   30.5    56    3.1   168     6.3   808.1    0.00 
  89    6:50   0.22   33.3    51    3.3   174     5.5   808.0    0.00 
  89    7:00   0.26   36.3    47    3.5   191     5.0   808.0    0.00 
  89    7:10   0.29   39.8    42    3.4   184     6.9   808.1    0.00 
  89    7:20   0.33   43.3    34    5.4   177     8.4   808.1    0.00 
  89    7:30   0.36   45.0    32    6.8   171     9.1   808.1    0.00 
  89    7:40   0.40   46.4    29    7.6   173     9.6   808.0    0.00 
  89    7:50   0.43   48.4    28    6.5   174     8.4   808.1    0.00 
  89    8:00   0.47   50.0    26    6.2   172     8.3   808.0    0.00 
  89    8:10   0.50   51.8    24    6.3   176     8.4   807.9    0.00 
  89    8:20   0.53   53.2    23    6.1   182     8.0   807.8    0.00 
  89    8:30   0.56   54.9    22    5.5   176     7.7   807.7    0.00 
  89    8:40   0.60   56.6    20    5.2   173     8.5   807.6    0.00 
  89    8:50   0.62   57.9    19    5.5   183     7.9   807.5    0.00 
  89    9:00   0.65   59.4    18    4.3   186     7.5   807.4    0.00 
  89    9:10   0.68   61.0    16    5.1   173     7.8   807.3    0.00 
  89    9:20   0.70   62.3    15    5.4   166    10.0   807.1    0.00 
  89    9:30   0.73   63.7    14    4.7   181     8.3   807.1    0.00 
  89    9:40   0.75   65.4    13    4.3   186     8.0   807.0    0.00 
  89    9:50   0.77   66.3    13    5.7   176    11.1   806.9    0.00 
  89   10:00   0.79   66.9    12    3.8   165     8.3   806.9    0.00 
  89   10:10   0.81   68.1    12    3.2   196     6.4   806.9    0.00 
  89   10:20   0.82   69.3    11    2.9   225     7.2   806.9    0.00 
  89   10:30   0.84   69.8    11    3.6   179     9.1   806.8    0.00 
  89   10:40   0.85   69.9    11    4.8   174     9.9   806.8    0.00 
  89   10:50   0.86   69.8    11    6.0   172    11.3   806.8    0.00 
  89   11:00   0.87   68.8    11    2.7    70     6.9   806.7    0.00 
  89   11:10   0.88   69.7    11    4.7   208    11.5   806.6    0.00 
  89   11:20   0.88   69.3    11    3.3   107     8.6   806.6    0.00 
  89   11:30   0.89   69.9    11    4.0   135     7.6   806.4    0.00 
  89   11:40   0.71   70.2    11    4.9   244    10.2   806.3    0.00 
  89   11:50   0.90   70.6    10    7.1   240    15.1   806.3    0.00 
  89   12:00   0.90   70.9    11    9.2   229    14.7   806.1    0.00 
  89   12:10   0.90   70.5    11    7.3   179    16.1   806.1    0.00 
  89   12:20   0.90   71.8    10    9.5   207    16.2   806.0    0.00 
  89   12:30   0.90   71.0    10    5.6   229    13.2   805.9    0.00 
  89   12:40   0.90   72.2    10    8.8   235    17.4   805.8    0.00 
  89   12:50   0.87   71.9    10    7.1   210    14.7   805.8    0.00 
  89   13:00   0.85   71.1     9    5.4   269    11.2   805.6    0.00 
  89   13:10   0.84   72.1    10    9.1   231    19.1   805.5    0.00 
  89   13:20   0.82   71.7     9    8.0   243    15.3   805.5    0.00 
  89   13:30   0.80   71.1     8    6.1   261    13.1   805.3    0.00 
  89   13:40   0.78   72.4     9    8.2   196    14.2   805.3    0.00 
  89   13:50   0.76   71.7     8    6.2   265    14.5   805.2    0.00 

Return to Steptoe Valley WMA graphs page.


Western Regional Climate Center,wrcc@dri.edu